sensor_id;sensor_type;location;lat;lon;timestamp;pressure;altitude;pressure_sealevel;temperature;humidity
1472;BME280;963;42.644;23.336;2024-03-23T00:53:09;94204.66;;;7.72;53.50
1472;BME280;963;42.644;23.336;2024-03-23T00:55:35;94205.66;;;7.67;54.00
1472;BME280;963;42.644;23.336;2024-03-23T00:58:00;94200.34;;;7.64;53.81
1472;BME280;963;42.644;23.336;2024-03-23T01:00:26;94195.00;;;7.60;53.95
1472;BME280;963;42.644;23.336;2024-03-23T01:02:51;94200.09;;;7.69;53.08
1472;BME280;963;42.644;23.336;2024-03-23T01:05:16;94196.47;;;7.73;53.29
1472;BME280;963;42.644;23.336;2024-03-23T01:07:42;94187.50;;;7.74;52.87
1472;BME280;963;42.644;23.336;2024-03-23T01:10:07;94200.47;;;7.83;51.81
1472;BME280;963;42.644;23.336;2024-03-23T01:12:33;94188.19;;;7.71;52.00
1472;BME280;963;42.644;23.336;2024-03-23T01:14:58;94185.81;;;7.66;52.92
1472;BME280;963;42.644;23.336;2024-03-23T01:17:24;94176.53;;;7.53;52.80
1472;BME280;963;42.644;23.336;2024-03-23T01:19:49;94193.75;;;7.54;52.47
1472;BME280;963;42.644;23.336;2024-03-23T01:22:14;94187.16;;;7.44;52.50
1472;BME280;963;42.644;23.336;2024-03-23T01:24:40;94179.84;;;7.38;52.55
1472;BME280;963;42.644;23.336;2024-03-23T01:27:05;94179.38;;;7.48;52.48
1472;BME280;963;42.644;23.336;2024-03-23T01:29:31;94175.63;;;7.33;52.61
1472;BME280;963;42.644;23.336;2024-03-23T01:31:56;94188.78;;;7.37;52.68
1472;BME280;963;42.644;23.336;2024-03-23T01:34:21;94184.72;;;7.24;53.08
1472;BME280;963;42.644;23.336;2024-03-23T01:36:47;94192.41;;;7.32;52.91
1472;BME280;963;42.644;23.336;2024-03-23T01:39:13;94171.41;;;7.29;52.99
1472;BME280;963;42.644;23.336;2024-03-23T01:41:39;94166.16;;;7.29;53.24
1472;BME280;963;42.644;23.336;2024-03-23T01:44:07;94192.25;;;7.41;52.94
1472;BME280;963;42.644;23.336;2024-03-23T01:46:33;94188.66;;;7.45;53.22
1472;BME280;963;42.644;23.336;2024-03-23T01:48:59;94186.59;;;7.39;53.37
1472;BME280;963;42.644;23.336;2024-03-23T01:51:25;94198.50;;;7.36;54.00
1472;BME280;963;42.644;23.336;2024-03-23T01:53:52;94171.88;;;7.18;55.20
1472;BME280;963;42.644;23.336;2024-03-23T01:56:20;94185.38;;;7.20;54.83
1472;BME280;963;42.644;23.336;2024-03-23T01:58:45;94205.31;;;7.25;53.82
1472;BME280;963;42.644;23.336;2024-03-23T02:01:11;94191.72;;;7.19;53.19
1472;BME280;963;42.644;23.336;2024-03-23T02:03:36;94190.69;;;7.08;54.48
1472;BME280;963;42.644;23.336;2024-03-23T02:06:02;94200.66;;;7.18;53.91
1472;BME280;963;42.644;23.336;2024-03-23T02:08:28;94199.56;;;7.19;53.65
1472;BME280;963;42.644;23.336;2024-03-23T02:10:55;94191.28;;;7.17;53.36
1472;BME280;963;42.644;23.336;2024-03-23T02:13:21;94196.72;;;7.25;53.88
1472;BME280;963;42.644;23.336;2024-03-23T02:15:46;94205.66;;;7.24;53.74
1472;BME280;963;42.644;23.336;2024-03-23T02:18:12;94195.66;;;7.13;53.68
1472;BME280;963;42.644;23.336;2024-03-23T02:20:38;94200.25;;;7.04;54.65
1472;BME280;963;42.644;23.336;2024-03-23T02:23:13;94190.56;;;7.05;54.49
1472;BME280;963;42.644;23.336;2024-03-23T02:25:38;94213.13;;;7.09;55.46
1472;BME280;963;42.644;23.336;2024-03-23T02:28:04;94197.19;;;7.14;54.53
1472;BME280;963;42.644;23.336;2024-03-23T02:30:30;94207.88;;;7.09;54.34
1472;BME280;963;42.644;23.336;2024-03-23T02:32:55;94180.03;;;6.89;54.70
1472;BME280;963;42.644;23.336;2024-03-23T02:35:21;94206.16;;;7.01;54.68
1472;BME280;963;42.644;23.336;2024-03-23T02:37:47;94200.03;;;7.09;55.55
1472;BME280;963;42.644;23.336;2024-03-23T02:40:14;94221.16;;;7.16;55.48
1472;BME280;963;42.644;23.336;2024-03-23T02:42:40;94215.25;;;7.19;55.55
1472;BME280;963;42.644;23.336;2024-03-23T02:45:06;94189.59;;;7.09;55.57
1472;BME280;963;42.644;23.336;2024-03-23T02:47:31;94184.13;;;7.02;54.93
1472;BME280;963;42.644;23.336;2024-03-23T02:49:56;94216.69;;;7.05;55.66
1472;BME280;963;42.644;23.336;2024-03-23T02:52:22;94192.31;;;7.01;55.46
1472;BME280;963;42.644;23.336;2024-03-23T02:54:47;94187.00;;;6.97;55.33
1472;BME280;963;42.644;23.336;2024-03-23T02:57:12;94195.81;;;6.93;55.29
1472;BME280;963;42.644;23.336;2024-03-23T02:59:38;94195.06;;;6.92;54.63
1472;BME280;963;42.644;23.336;2024-03-23T03:02:04;94190.63;;;6.80;55.57
1472;BME280;963;42.644;23.336;2024-03-23T03:04:30;94195.72;;;6.89;55.68
1472;BME280;963;42.644;23.336;2024-03-23T03:06:56;94193.66;;;6.95;56.70
1472;BME280;963;42.644;23.336;2024-03-23T03:09:21;94177.00;;;6.87;56.98
1472;BME280;963;42.644;23.336;2024-03-23T03:11:47;94180.47;;;6.91;56.02
1472;BME280;963;42.644;23.336;2024-03-23T03:14:12;94194.59;;;7.02;56.28
1472;BME280;963;42.644;23.336;2024-03-23T03:16:38;94190.03;;;6.99;56.69
1472;BME280;963;42.644;23.336;2024-03-23T03:19:03;94207.56;;;6.99;55.97
1472;BME280;963;42.644;23.336;2024-03-23T03:21:29;94194.97;;;6.88;55.90
1472;BME280;963;42.644;23.336;2024-03-23T03:23:54;94204.25;;;6.86;56.11
1472;BME280;963;42.644;23.336;2024-03-23T03:26:21;94194.22;;;6.88;56.06
1472;BME280;963;42.644;23.336;2024-03-23T03:28:47;94199.25;;;6.81;56.29
1472;BME280;963;42.644;23.336;2024-03-23T03:31:17;94189.59;;;6.69;56.14
1472;BME280;963;42.644;23.336;2024-03-23T03:33:43;94203.19;;;6.63;56.64
1472;BME280;963;42.644;23.336;2024-03-23T03:36:08;94200.13;;;6.61;57.43
1472;BME280;963;42.644;23.336;2024-03-23T03:38:34;94202.09;;;6.64;56.95
1472;BME280;963;42.644;23.336;2024-03-23T03:41:04;94208.31;;;6.59;57.07
1472;BME280;963;42.644;23.336;2024-03-23T03:43:29;94195.38;;;6.50;57.35
1472;BME280;963;42.644;23.336;2024-03-23T03:45:56;94188.19;;;6.47;58.34
1472;BME280;963;42.644;23.336;2024-03-23T03:48:22;94207.97;;;6.61;58.32
1472;BME280;963;42.644;23.336;2024-03-23T03:50:48;94196.44;;;6.62;57.75
1472;BME280;963;42.644;23.336;2024-03-23T03:53:13;94215.16;;;6.64;56.59
1472;BME280;963;42.644;23.336;2024-03-23T03:55:39;94200.81;;;6.57;56.47
1472;BME280;963;42.644;23.336;2024-03-23T03:58:04;94183.84;;;6.51;56.88
1472;BME280;963;42.644;23.336;2024-03-23T04:00:30;94196.44;;;6.62;56.99
1472;BME280;963;42.644;23.336;2024-03-23T04:02:56;94197.97;;;6.63;57.35
1472;BME280;963;42.644;23.336;2024-03-23T04:05:22;94210.69;;;6.64;57.22
1472;BME280;963;42.644;23.336;2024-03-23T04:07:47;94187.50;;;6.63;57.29
1472;BME280;963;42.644;23.336;2024-03-23T04:10:13;94196.44;;;6.62;57.60
1472;BME280;963;42.644;23.336;2024-03-23T04:12:38;94187.97;;;6.52;57.72
1472;BME280;963;42.644;23.336;2024-03-23T04:15:04;94212.00;;;6.58;57.82
1472;BME280;963;42.644;23.336;2024-03-23T04:17:31;94192.53;;;6.55;58.00
1472;BME280;963;42.644;23.336;2024-03-23T04:20:00;94214.28;;;6.59;57.67
1472;BME280;963;42.644;23.336;2024-03-23T04:22:26;94202.31;;;6.58;57.85
1472;BME280;963;42.644;23.336;2024-03-23T04:24:55;94200.81;;;6.57;57.74
1472;BME280;963;42.644;23.336;2024-03-23T04:27:21;94197.75;;;6.55;58.09
1472;BME280;963;42.644;23.336;2024-03-23T04:29:47;94205.09;;;6.38;57.76
1472;BME280;963;42.644;23.336;2024-03-23T04:32:13;94205.69;;;6.59;58.07
1472;BME280;963;42.644;23.336;2024-03-23T04:34:39;94208.97;;;6.56;58.61
1472;BME280;963;42.644;23.336;2024-03-23T04:37:04;94224.66;;;6.56;58.05
1472;BME280;963;42.644;23.336;2024-03-23T04:39:30;94211.47;;;6.52;58.74
1472;BME280;963;42.644;23.336;2024-03-23T04:41:55;94223.91;;;6.43;59.19
1472;BME280;963;42.644;23.336;2024-03-23T04:44:20;94197.47;;;6.33;59.30
1472;BME280;963;42.644;23.336;2024-03-23T04:46:46;94209.31;;;6.42;58.69
1472;BME280;963;42.644;23.336;2024-03-23T04:49:12;94202.47;;;6.38;58.51
1472;BME280;963;42.644;23.336;2024-03-23T04:51:37;94208.75;;;6.49;59.12
1472;BME280;963;42.644;23.336;2024-03-23T04:54:11;94217.38;;;6.49;59.02
1472;BME280;963;42.644;23.336;2024-03-23T04:56:36;94223.78;;;6.52;59.00
1472;BME280;963;42.644;23.336;2024-03-23T04:59:01;94221.50;;;6.50;58.86
1472;BME280;963;42.644;23.336;2024-03-23T05:01:29;94217.56;;;6.56;58.92
1472;BME280;963;42.644;23.336;2024-03-23T05:03:56;94232.91;;;6.58;58.70
1472;BME280;963;42.644;23.336;2024-03-23T05:06:22;94207.56;;;6.58;58.80
1472;BME280;963;42.644;23.336;2024-03-23T05:08:47;94215.72;;;6.69;59.10
1472;BME280;963;42.644;23.336;2024-03-23T05:11:13;94219.72;;;6.67;59.01
1472;BME280;963;42.644;23.336;2024-03-23T05:13:38;94234.66;;;6.66;58.68
1472;BME280;963;42.644;23.336;2024-03-23T05:16:04;94216.03;;;6.68;58.81
1472;BME280;963;42.644;23.336;2024-03-23T05:18:29;94223.22;;;6.71;58.44
1472;BME280;963;42.644;23.336;2024-03-23T05:20:58;94216.03;;;6.68;58.22
1472;BME280;963;42.644;23.336;2024-03-23T05:23:25;94204.28;;;6.62;58.24
1472;BME280;963;42.644;23.336;2024-03-23T05:25:50;94215.16;;;6.76;57.60
1472;BME280;963;42.644;23.336;2024-03-23T05:28:17;94211.03;;;6.75;56.98
1472;BME280;963;42.644;23.336;2024-03-23T05:30:42;94210.06;;;6.55;57.53
1472;BME280;963;42.644;23.336;2024-03-23T05:33:08;94194.91;;;6.61;57.76
1472;BME280;963;42.644;23.336;2024-03-23T05:35:33;94221.47;;;6.63;57.43
1472;BME280;963;42.644;23.336;2024-03-23T05:37:59;94201.44;;;6.67;56.65
1472;BME280;963;42.644;23.336;2024-03-23T05:40:26;94209.94;;;6.76;56.46
1472;BME280;963;42.644;23.336;2024-03-23T05:42:52;94211.00;;;6.87;56.80
1472;BME280;963;42.644;23.336;2024-03-23T05:45:23;94206.84;;;6.86;55.95
1472;BME280;963;42.644;23.336;2024-03-23T05:47:49;94209.66;;;6.93;56.15
1472;BME280;963;42.644;23.336;2024-03-23T05:50:15;94206.69;;;7.07;56.29
1472;BME280;963;42.644;23.336;2024-03-23T05:52:41;94215.06;;;7.12;55.49
1472;BME280;963;42.644;23.336;2024-03-23T05:55:08;94225.53;;;7.12;55.67
1472;BME280;963;42.644;23.336;2024-03-23T05:57:34;94232.28;;;7.13;55.55
1472;BME280;963;42.644;23.336;2024-03-23T05:59:59;94237.84;;;7.12;55.58
1472;BME280;963;42.644;23.336;2024-03-23T06:02:25;94199.38;;;7.12;55.40
1472;BME280;963;42.644;23.336;2024-03-23T06:04:50;94210.44;;;7.21;55.42
1472;BME280;963;42.644;23.336;2024-03-23T06:07:15;94207.84;;;7.21;56.06
1472;BME280;963;42.644;23.336;2024-03-23T06:09:41;94202.69;;;7.25;56.18
1472;BME280;963;42.644;23.336;2024-03-23T06:12:07;94227.63;;;7.35;56.33
1472;BME280;963;42.644;23.336;2024-03-23T06:14:34;94198.84;;;7.35;57.21
1472;BME280;963;42.644;23.336;2024-03-23T06:17:00;94185.09;;;7.38;56.71
1472;BME280;963;42.644;23.336;2024-03-23T06:19:26;94200.50;;;7.55;57.14
1472;BME280;963;42.644;23.336;2024-03-23T06:21:53;94211.06;;;7.59;56.66
1472;BME280;963;42.644;23.336;2024-03-23T06:24:19;94204.97;;;7.70;56.35
1472;BME280;963;42.644;23.336;2024-03-23T06:26:44;94213.97;;;7.85;56.70
1472;BME280;963;42.644;23.336;2024-03-23T06:29:10;94187.44;;;7.87;56.41
1472;BME280;963;42.644;23.336;2024-03-23T06:31:35;94193.03;;;8.01;55.44
1472;BME280;963;42.644;23.336;2024-03-23T06:34:00;94195.13;;;8.11;55.37
1472;BME280;963;42.644;23.336;2024-03-23T06:36:27;94200.56;;;8.18;55.54
1472;BME280;963;42.644;23.336;2024-03-23T06:38:52;94192.50;;;8.27;55.35
1472;BME280;963;42.644;23.336;2024-03-23T06:41:19;94194.78;;;8.28;54.92
1472;BME280;963;42.644;23.336;2024-03-23T06:43:44;94201.22;;;8.31;55.60
1472;BME280;963;42.644;23.336;2024-03-23T06:46:10;94190.84;;;8.34;54.95
1472;BME280;963;42.644;23.336;2024-03-23T06:48:35;94195.81;;;8.39;54.51
1472;BME280;963;42.644;23.336;2024-03-23T06:51:00;94192.94;;;8.44;53.93
1472;BME280;963;42.644;23.336;2024-03-23T06:53:26;94182.44;;;8.44;53.88
1472;BME280;963;42.644;23.336;2024-03-23T06:55:52;94208.13;;;8.55;53.54
1472;BME280;963;42.644;23.336;2024-03-23T06:58:22;94197.47;;;8.16;53.91
1472;BME280;963;42.644;23.336;2024-03-23T07:00:48;94224.63;;;7.92;54.98
1472;BME280;963;42.644;23.336;2024-03-23T07:03:14;94191.25;;;8.36;53.65
1472;BME280;963;42.644;23.336;2024-03-23T07:05:39;94180.31;;;8.50;53.17
1472;BME280;963;42.644;23.336;2024-03-23T07:08:05;94179.56;;;8.50;53.58
1472;BME280;963;42.644;23.336;2024-03-23T07:10:31;94183.06;;;8.73;53.24
1472;BME280;963;42.644;23.336;2024-03-23T07:12:56;94184.44;;;8.86;52.08
1472;BME280;963;42.644;23.336;2024-03-23T07:15:21;94149.09;;;8.80;51.68
1472;BME280;963;42.644;23.336;2024-03-23T07:17:47;94180.94;;;9.17;51.46
1472;BME280;963;42.644;23.336;2024-03-23T07:20:13;94189.28;;;9.23;50.66
1472;BME280;963;42.644;23.336;2024-03-23T07:22:39;94182.66;;;9.29;50.50
1472;BME280;963;42.644;23.336;2024-03-23T07:25:05;94173.69;;;9.30;50.44
1472;BME280;963;42.644;23.336;2024-03-23T07:27:31;94179.31;;;9.51;50.25
1472;BME280;963;42.644;23.336;2024-03-23T07:29:56;94167.31;;;9.50;50.45
1472;BME280;963;42.644;23.336;2024-03-23T07:32:22;94163.00;;;9.61;49.87
1472;BME280;963;42.644;23.336;2024-03-23T07:34:47;94163.38;;;9.83;48.96
1472;BME280;963;42.644;23.336;2024-03-23T07:37:13;94164.66;;;9.69;52.91
1472;BME280;963;42.644;23.336;2024-03-23T07:39:39;94166.47;;;9.88;49.19
1472;BME280;963;42.644;23.336;2024-03-23T07:42:05;94149.88;;;9.84;47.64
1472;BME280;963;42.644;23.336;2024-03-23T07:44:30;94144.56;;;10.03;47.39
1472;BME280;963;42.644;23.336;2024-03-23T07:46:56;94141.78;;;10.19;47.14
1472;BME280;963;42.644;23.336;2024-03-23T07:49:21;94170.69;;;10.19;47.41
1472;BME280;963;42.644;23.336;2024-03-23T07:51:46;94166.09;;;10.13;47.80
1472;BME280;963;42.644;23.336;2024-03-23T07:54:12;94146.66;;;9.94;48.26
1472;BME280;963;42.644;23.336;2024-03-23T07:56:37;94154.34;;;10.29;47.13
1472;BME280;963;42.644;23.336;2024-03-23T07:59:03;94144.66;;;10.33;47.20
1472;BME280;963;42.644;23.336;2024-03-23T08:01:28;94147.22;;;10.56;46.22
1472;BME280;963;42.644;23.336;2024-03-23T08:03:54;94147.19;;;10.53;46.44
1472;BME280;963;42.644;23.336;2024-03-23T08:06:20;94151.19;;;10.73;45.87
1472;BME280;963;42.644;23.336;2024-03-23T08:08:50;94140.81;;;10.84;44.46
1472;BME280;963;42.644;23.336;2024-03-23T08:11:16;94151.38;;;10.87;44.50
1472;BME280;963;42.644;23.336;2024-03-23T08:13:44;94139.50;;;11.01;44.26
1472;BME280;963;42.644;23.336;2024-03-23T08:16:10;94147.97;;;11.17;43.91
1472;BME280;963;42.644;23.336;2024-03-23T08:18:35;94147.13;;;11.09;44.16
1472;BME280;963;42.644;23.336;2024-03-23T08:21:02;94140.94;;;10.94;44.51
1472;BME280;963;42.644;23.336;2024-03-23T08:23:28;94140.47;;;11.19;43.85
1472;BME280;963;42.644;23.336;2024-03-23T08:25:58;94153.88;;;11.07;43.75
1472;BME280;963;42.644;23.336;2024-03-23T08:28:24;94125.53;;;11.30;43.75
1472;BME280;963;42.644;23.336;2024-03-23T08:30:49;94129.38;;;11.36;43.10
1472;BME280;963;42.644;23.336;2024-03-23T08:33:15;94129.22;;;11.22;43.55
1472;BME280;963;42.644;23.336;2024-03-23T08:35:41;94125.22;;;11.35;43.60
1472;BME280;963;42.644;23.336;2024-03-23T08:38:06;94102.25;;;11.32;43.58
1472;BME280;963;42.644;23.336;2024-03-23T08:40:32;94125.00;;;11.51;43.71
1472;BME280;963;42.644;23.336;2024-03-23T08:42:57;94128.53;;;11.66;43.29
1472;BME280;963;42.644;23.336;2024-03-23T08:45:26;94116.53;;;11.72;43.61
1472;BME280;963;42.644;23.336;2024-03-23T08:47:51;94135.06;;;11.79;43.66
1472;BME280;963;42.644;23.336;2024-03-23T08:50:17;94083.28;;;11.56;43.54
1472;BME280;963;42.644;23.336;2024-03-23T08:52:42;94104.44;;;11.64;44.08
1472;BME280;963;42.644;23.336;2024-03-23T08:55:08;94110.00;;;11.55;43.76
1472;BME280;963;42.644;23.336;2024-03-23T08:57:35;94126.97;;;11.20;44.21
1472;BME280;963;42.644;23.336;2024-03-23T09:00:00;94102.41;;;11.50;44.14
1472;BME280;963;42.644;23.336;2024-03-23T09:02:26;94097.81;;;11.84;43.56
1472;BME280;963;42.644;23.336;2024-03-23T09:04:51;94077.28;;;12.04;43.51
1472;BME280;963;42.644;23.336;2024-03-23T09:07:16;94087.25;;;12.32;43.11
1472;BME280;963;42.644;23.336;2024-03-23T09:09:42;94085.50;;;11.92;42.97
1472;BME280;963;42.644;23.336;2024-03-23T09:12:07;94099.06;;;11.94;43.69
1472;BME280;963;42.644;23.336;2024-03-23T09:14:33;94073.34;;;12.35;42.92
1472;BME280;963;42.644;23.336;2024-03-23T09:16:59;94072.22;;;12.43;42.11
1472;BME280;963;42.644;23.336;2024-03-23T09:19:27;94060.00;;;12.13;42.01
1472;BME280;963;42.644;23.336;2024-03-23T09:21:53;94067.69;;;12.40;41.65
1472;BME280;963;42.644;23.336;2024-03-23T09:24:18;94058.06;;;12.72;41.72
1472;BME280;963;42.644;23.336;2024-03-23T09:26:44;94066.03;;;12.90;42.01
1472;BME280;963;42.644;23.336;2024-03-23T09:29:09;94052.91;;;13.15;41.84
1472;BME280;963;42.644;23.336;2024-03-23T09:31:35;94045.38;;;13.21;41.07
1472;BME280;963;42.644;23.336;2024-03-23T09:34:00;94043.88;;;13.37;40.83
1472;BME280;963;42.644;23.336;2024-03-23T09:36:25;94036.34;;;13.25;40.91
1472;BME280;963;42.644;23.336;2024-03-23T09:38:51;94045.81;;;13.62;41.06
1472;BME280;963;42.644;23.336;2024-03-23T09:41:16;94026.16;;;13.66;39.90
1472;BME280;963;42.644;23.336;2024-03-23T09:43:42;94031.06;;;13.86;39.71
1472;BME280;963;42.644;23.336;2024-03-23T09:46:07;94026.53;;;13.93;39.10
1472;BME280;963;42.644;23.336;2024-03-23T09:48:33;94017.81;;;14.03;38.99
1472;BME280;963;42.644;23.336;2024-03-23T09:50:58;94014.38;;;14.28;38.40
1472;BME280;963;42.644;23.336;2024-03-23T09:53:24;94025.75;;;14.03;37.36
1472;BME280;963;42.644;23.336;2024-03-23T09:55:49;94006.03;;;14.33;37.83
1472;BME280;963;42.644;23.336;2024-03-23T09:58:16;93994.66;;;14.39;38.10
1472;BME280;963;42.644;23.336;2024-03-23T10:00:42;93993.84;;;14.67;37.90
1472;BME280;963;42.644;23.336;2024-03-23T10:03:07;93997.66;;;14.59;37.69
1472;BME280;963;42.644;23.336;2024-03-23T10:05:33;93997.91;;;14.83;37.48
1472;BME280;963;42.644;23.336;2024-03-23T10:08:00;93978.22;;;14.91;37.63
1472;BME280;963;42.644;23.336;2024-03-23T10:10:26;93986.03;;;15.12;37.12
1472;BME280;963;42.644;23.336;2024-03-23T10:12:51;93971.63;;;15.13;36.60
1472;BME280;963;42.644;23.336;2024-03-23T10:15:23;93985.13;;;15.33;36.86
1472;BME280;963;42.644;23.336;2024-03-23T10:17:49;93972.56;;;15.41;36.69
1472;BME280;963;42.644;23.336;2024-03-23T10:20:22;93985.63;;;15.69;36.42
1472;BME280;963;42.644;23.336;2024-03-23T10:22:48;93983.44;;;15.98;35.71
1472;BME280;963;42.644;23.336;2024-03-23T10:25:15;93959.47;;;16.09;35.09
1472;BME280;963;42.644;23.336;2024-03-23T10:27:40;93958.09;;;16.31;34.71
1472;BME280;963;42.644;23.336;2024-03-23T10:32:35;93946.25;;;16.70;34.41
1472;BME280;963;42.644;23.336;2024-03-23T10:35:17;93948.22;;;16.66;34.42
1472;BME280;963;42.644;23.336;2024-03-23T10:37:44;93932.28;;;16.93;33.68
1472;BME280;963;42.644;23.336;2024-03-23T10:40:11;93933.78;;;17.21;33.95
1472;BME280;963;42.644;23.336;2024-03-23T10:42:37;93927.44;;;17.38;33.54
1472;BME280;963;42.644;23.336;2024-03-23T10:45:07;93925.81;;;17.21;34.31
1472;BME280;963;42.644;23.336;2024-03-23T10:47:34;93917.25;;;17.33;33.56
1472;BME280;963;42.644;23.336;2024-03-23T10:50:01;93918.72;;;16.87;34.08
1472;BME280;963;42.644;23.336;2024-03-23T10:52:26;93917.16;;;17.16;33.77
1472;BME280;963;42.644;23.336;2024-03-23T10:54:52;93913.91;;;17.29;33.83
1472;BME280;963;42.644;23.336;2024-03-23T10:57:21;93886.03;;;17.60;33.71
1472;BME280;963;42.644;23.336;2024-03-23T10:59:48;93899.22;;;17.91;32.84
1472;BME280;963;42.644;23.336;2024-03-23T11:02:21;93879.94;;;18.03;32.66
1472;BME280;963;42.644;23.336;2024-03-23T11:04:46;93888.88;;;18.32;32.16
1472;BME280;963;42.644;23.336;2024-03-23T11:09:49;93872.94;;;18.68;31.68
1472;BME280;963;42.644;23.336;2024-03-23T11:15:02;93862.38;;;17.23;32.21
1472;BME280;963;42.644;23.336;2024-03-23T11:17:29;93875.09;;;17.11;32.56
1472;BME280;963;42.644;23.336;2024-03-23T11:20:02;93845.75;;;17.38;32.31
1472;BME280;963;42.644;23.336;2024-03-23T11:25:23;93835.88;;;18.02;32.18
1472;BME280;963;42.644;23.336;2024-03-23T11:27:50;93837.97;;;18.47;31.62
1472;BME280;963;42.644;23.336;2024-03-23T11:32:46;93832.28;;;18.28;31.09
1472;BME280;963;42.644;23.336;2024-03-23T11:35:34;93825.47;;;18.27;31.39
1472;BME280;963;42.644;23.336;2024-03-23T11:38:10;93815.84;;;18.50;31.03
1472;BME280;963;42.644;23.336;2024-03-23T11:40:41;93820.28;;;17.61;31.76
1472;BME280;963;42.644;23.336;2024-03-23T11:43:08;93823.16;;;18.09;31.51
1472;BME280;963;42.644;23.336;2024-03-23T11:45:37;93812.22;;;18.24;31.37
1472;BME280;963;42.644;23.336;2024-03-23T11:48:10;93818.41;;;18.01;31.64
1472;BME280;963;42.644;23.336;2024-03-23T11:50:44;93793.94;;;18.58;31.39
1472;BME280;963;42.644;23.336;2024-03-23T11:55:42;93787.00;;;19.42;30.75
1472;BME280;963;42.644;23.336;2024-03-23T11:58:07;93769.13;;;19.55;29.63
1472;BME280;963;42.644;23.336;2024-03-23T12:00:34;93766.59;;;19.35;29.90
1472;BME280;963;42.644;23.336;2024-03-23T12:03:03;93762.44;;;19.34;29.61
1472;BME280;963;42.644;23.336;2024-03-23T12:05:29;93770.72;;;19.08;29.89
1472;BME280;963;42.644;23.336;2024-03-23T12:07:55;93760.66;;;19.44;29.52
1472;BME280;963;42.644;23.336;2024-03-23T12:10:40;93772.94;;;19.83;29.52
1472;BME280;963;42.644;23.336;2024-03-23T12:13:05;93746.28;;;20.21;29.11
1472;BME280;963;42.644;23.336;2024-03-23T12:15:31;93739.13;;;20.44;29.02
1472;BME280;963;42.644;23.336;2024-03-23T12:18:07;93733.44;;;19.91;29.06
1472;BME280;963;42.644;23.336;2024-03-23T12:20:32;93729.81;;;19.85;29.39
1472;BME280;963;42.644;23.336;2024-03-23T12:23:08;93744.38;;;20.09;29.49
1472;BME280;963;42.644;23.336;2024-03-23T12:25:35;93733.38;;;20.07;30.21
1472;BME280;963;42.644;23.336;2024-03-23T12:28:01;93743.72;;;20.43;28.83
1472;BME280;963;42.644;23.336;2024-03-23T12:30:27;93732.69;;;20.03;28.80
1472;BME280;963;42.644;23.336;2024-03-23T12:32:52;93723.22;;;20.53;29.26
1472;BME280;963;42.644;23.336;2024-03-23T12:35:18;93708.16;;;20.94;28.48
1472;BME280;963;42.644;23.336;2024-03-23T12:37:44;93705.34;;;21.32;28.17
1472;BME280;963;42.644;23.336;2024-03-23T12:40:10;93710.16;;;21.59;27.77
1472;BME280;963;42.644;23.336;2024-03-23T12:42:35;93695.56;;;21.60;27.86
1472;BME280;963;42.644;23.336;2024-03-23T12:45:01;93698.78;;;21.76;27.17
1472;BME280;963;42.644;23.336;2024-03-23T12:47:26;93690.09;;;21.94;26.47
1472;BME280;963;42.644;23.336;2024-03-23T12:49:52;93696.31;;;22.22;25.75
1472;BME280;963;42.644;23.336;2024-03-23T12:52:17;93688.78;;;22.39;26.06
1472;BME280;963;42.644;23.336;2024-03-23T12:54:43;93686.16;;;22.08;25.34
1472;BME280;963;42.644;23.336;2024-03-23T12:57:08;93678.56;;;22.06;25.49
1472;BME280;963;42.644;23.336;2024-03-23T12:59:33;93662.66;;;22.21;25.20
1472;BME280;963;42.644;23.336;2024-03-23T13:02:00;93658.19;;;22.18;24.74
1472;BME280;963;42.644;23.336;2024-03-23T13:04:26;93680.56;;;21.93;24.09
1472;BME280;963;42.644;23.336;2024-03-23T13:06:51;93658.31;;;22.05;23.52
1472;BME280;963;42.644;23.336;2024-03-23T13:09:16;93648.50;;;22.11;24.00
1472;BME280;963;42.644;23.336;2024-03-23T13:11:42;93649.41;;;22.08;23.79
1472;BME280;963;42.644;23.336;2024-03-23T13:14:08;93647.94;;;21.85;24.35
1472;BME280;963;42.644;23.336;2024-03-23T13:16:33;93651.88;;;21.41;24.55
1472;BME280;963;42.644;23.336;2024-03-23T13:18:58;93638.94;;;21.39;25.31
1472;BME280;963;42.644;23.336;2024-03-23T13:21:24;93657.72;;;21.05;25.16
1472;BME280;963;42.644;23.336;2024-03-23T13:23:49;93644.03;;;21.46;24.73
1472;BME280;963;42.644;23.336;2024-03-23T13:26:16;93631.94;;;21.64;24.83
1472;BME280;963;42.644;23.336;2024-03-23T13:28:41;93622.88;;;21.17;24.08
1472;BME280;963;42.644;23.336;2024-03-23T13:31:07;93630.63;;;21.37;23.85
1472;BME280;963;42.644;23.336;2024-03-23T13:33:33;93624.56;;;21.46;23.87
1472;BME280;963;42.644;23.336;2024-03-23T13:35:59;93625.91;;;21.50;23.67
1472;BME280;963;42.644;23.336;2024-03-23T13:38:25;93622.31;;;21.44;24.05
1472;BME280;963;42.644;23.336;2024-03-23T13:40:58;93613.25;;;20.76;21.62
1472;BME280;963;42.644;23.336;2024-03-23T13:43:25;93640.13;;;20.95;22.64
1472;BME280;963;42.644;23.336;2024-03-23T13:45:55;93616.91;;;20.70;22.55
1472;BME280;963;42.644;23.336;2024-03-23T13:48:21;93619.22;;;20.33;22.67
1472;BME280;963;42.644;23.336;2024-03-23T13:50:47;93584.69;;;20.73;22.41
1472;BME280;963;42.644;23.336;2024-03-23T13:53:21;93629.59;;;20.78;22.54
1472;BME280;963;42.644;23.336;2024-03-23T13:55:49;93608.75;;;20.39;22.34
1472;BME280;963;42.644;23.336;2024-03-23T13:58:15;93605.97;;;20.99;22.75
1472;BME280;963;42.644;23.336;2024-03-23T14:00:40;93610.13;;;21.43;22.57
1472;BME280;963;42.644;23.336;2024-03-23T14:03:08;93599.47;;;21.52;22.41
1472;BME280;963;42.644;23.336;2024-03-23T14:05:34;93602.53;;;21.73;22.32
1472;BME280;963;42.644;23.336;2024-03-23T14:07:59;93587.41;;;21.88;22.59
1472;BME280;963;42.644;23.336;2024-03-23T14:10:24;93592.56;;;22.23;21.75
1472;BME280;963;42.644;23.336;2024-03-23T14:12:50;93612.25;;;22.38;22.33
1472;BME280;963;42.644;23.336;2024-03-23T14:15:16;93585.78;;;22.67;22.39
1472;BME280;963;42.644;23.336;2024-03-23T14:17:41;93574.47;;;22.82;21.33
1472;BME280;963;42.644;23.336;2024-03-23T14:20:07;93589.94;;;23.05;22.06
1472;BME280;963;42.644;23.336;2024-03-23T14:22:36;93583.22;;;23.10;21.42
1472;BME280;963;42.644;23.336;2024-03-23T14:25:02;93583.66;;;22.99;21.87
1472;BME280;963;42.644;23.336;2024-03-23T14:27:27;93591.97;;;22.19;22.27
1472;BME280;963;42.644;23.336;2024-03-23T14:29:53;93575.75;;;22.13;22.25